createdAt,value
2018-07-04T00:00:51.667Z,85.70
2018-07-04T00:03:30.865Z,85.40
2018-07-04T00:06:10.060Z,85.20
2018-07-04T00:08:49.344Z,84.80
2018-07-04T00:11:28.480Z,85.10
2018-07-04T00:14:07.929Z,85.10
2018-07-04T00:16:47.068Z,85.00
2018-07-04T00:19:26.457Z,84.50
2018-07-04T00:22:05.707Z,84.30
2018-07-04T00:24:44.836Z,84.20
2018-07-04T00:27:24.045Z,83.90
2018-07-04T00:30:03.448Z,84.30
2018-07-04T00:32:42.685Z,84.50
2018-07-04T00:35:22.027Z,84.40
2018-07-04T00:38:01.040Z,84.30
2018-07-04T00:40:40.187Z,84.60
2018-07-04T00:43:19.364Z,84.70
2018-07-04T00:45:58.491Z,85.40
2018-07-04T00:48:37.690Z,85.40
2018-07-04T00:51:16.848Z,85.50
2018-07-04T00:53:56.012Z,85.80
2018-07-04T00:56:35.344Z,85.80
2018-07-04T00:59:14.512Z,86.20
2018-07-04T01:01:53.777Z,86.00
2018-07-04T01:04:33.025Z,85.90
2018-07-04T01:07:12.373Z,86.00
2018-07-04T01:09:51.667Z,86.30
2018-07-04T01:12:30.884Z,86.20
2018-07-04T01:15:09.980Z,86.10
2018-07-04T01:17:49.212Z,86.20
2018-07-04T01:20:32.931Z,85.50
2018-07-04T01:23:12.240Z,85.60
2018-07-04T01:25:51.539Z,86.10
2018-07-04T01:28:36.305Z,86.00
2018-07-04T01:31:15.580Z,85.70
2018-07-04T01:33:54.961Z,85.30
2018-07-04T01:36:34.128Z,85.70
2018-07-04T01:39:13.245Z,85.70
2018-07-04T01:41:52.383Z,86.00
2018-07-04T01:44:31.660Z,86.40
2018-07-04T01:47:10.724Z,86.80
2018-07-04T01:49:50.033Z,87.10
2018-07-04T01:52:29.112Z,87.20
2018-07-04T01:55:08.408Z,86.90
2018-07-04T01:57:47.593Z,87.00
2018-07-04T02:00:26.802Z,86.90
2018-07-04T02:03:06.108Z,86.80
2018-07-04T02:05:45.273Z,87.10
2018-07-04T02:08:24.385Z,86.90
2018-07-04T02:11:03.665Z,87.00
2018-07-04T02:13:42.932Z,86.90
2018-07-04T02:16:22.065Z,87.10
2018-07-04T02:19:01.228Z,87.10
2018-07-04T02:21:40.652Z,87.30
2018-07-04T02:24:20.021Z,87.40
2018-07-04T02:26:59.262Z,87.00
2018-07-04T02:29:38.468Z,87.40
2018-07-04T02:32:17.860Z,87.50
2018-07-04T02:34:59.242Z,87.60
2018-07-04T02:37:39.157Z,87.40
2018-07-04T02:40:18.324Z,87.20
2018-07-04T02:42:57.966Z,87.30
2018-07-04T02:45:37.472Z,87.40
2018-07-04T02:48:16.858Z,87.40
2018-07-04T02:50:56.503Z,87.30
2018-07-04T02:53:35.917Z,86.90
2018-07-04T02:56:15.129Z,86.80
2018-07-04T02:58:54.456Z,86.70
2018-07-04T03:01:33.923Z,87.10
2018-07-04T03:04:13.292Z,87.00
2018-07-04T03:06:52.589Z,87.10
2018-07-04T03:09:33.118Z,87.00
2018-07-04T03:12:12.490Z,86.70
2018-07-04T03:14:51.733Z,86.50
2018-07-04T03:17:30.824Z,86.00
2018-07-04T03:20:10.059Z,86.60
2018-07-04T03:22:49.320Z,87.00
2018-07-04T03:25:28.814Z,87.00
2018-07-04T03:28:08.105Z,86.90
2018-07-04T03:30:47.459Z,86.60
2018-07-04T03:33:26.701Z,87.30
2018-07-04T03:36:06.055Z,87.50
2018-07-04T03:38:45.160Z,87.80
2018-07-04T03:41:24.284Z,87.90
2018-07-04T03:44:03.384Z,87.80
2018-07-04T03:46:42.613Z,87.90
2018-07-04T03:49:21.780Z,87.60
2018-07-04T03:52:01.006Z,87.00
2018-07-04T03:54:40.385Z,87.30
2018-07-04T03:57:19.688Z,87.70
2018-07-04T03:59:59.011Z,88.00
2018-07-04T04:02:38.224Z,87.80
2018-07-04T04:05:17.468Z,87.50
2018-07-04T04:07:56.621Z,87.10
2018-07-04T04:10:35.924Z,87.40
2018-07-04T04:13:15.333Z,87.10
2018-07-04T04:15:54.476Z,87.00
2018-07-04T04:18:33.800Z,87.40
2018-07-04T04:21:13.025Z,87.50
2018-07-04T04:23:52.372Z,87.80
2018-07-04T04:26:31.744Z,87.80
2018-07-04T04:29:11.078Z,88.20
2018-07-04T04:31:50.204Z,87.80
2018-07-04T04:34:29.476Z,87.90
2018-07-04T04:37:08.689Z,87.60
2018-07-04T04:39:47.997Z,87.30
2018-07-04T04:42:27.245Z,87.50
2018-07-04T04:45:06.607Z,87.70
2018-07-04T04:47:45.799Z,87.80
2018-07-04T04:50:25.149Z,87.90
2018-07-04T04:53:04.305Z,87.70
2018-07-04T04:55:44.279Z,87.40
2018-07-04T04:58:23.639Z,87.10
2018-07-04T05:01:02.989Z,87.30
2018-07-04T05:03:42.182Z,87.70
2018-07-04T05:06:21.678Z,87.40
2018-07-04T05:09:00.985Z,86.80
2018-07-04T05:11:40.277Z,86.40
2018-07-04T05:14:19.529Z,85.60
2018-07-04T05:16:58.889Z,85.80
2018-07-04T05:19:38.134Z,85.40
2018-07-04T05:22:17.250Z,85.00
2018-07-04T05:24:56.489Z,84.10
2018-07-04T05:27:35.877Z,84.70
2018-07-04T05:30:15.069Z,84.10
2018-07-04T05:32:54.248Z,83.10
2018-07-04T05:35:33.609Z,83.00
2018-07-04T05:38:12.945Z,82.30
2018-07-04T05:40:52.251Z,82.40
2018-07-04T05:43:31.399Z,81.30
2018-07-04T05:46:10.832Z,81.00
2018-07-04T05:48:50.109Z,80.90
2018-07-04T05:51:29.277Z,80.90
2018-07-04T05:54:08.582Z,80.90
2018-07-04T05:56:48.185Z,80.80
2018-07-04T05:59:27.321Z,80.20
2018-07-04T06:02:06.629Z,80.10
2018-07-04T06:04:45.833Z,80.00
2018-07-04T06:07:25.346Z,80.90
2018-07-04T06:10:04.769Z,81.10
2018-07-04T06:12:43.852Z,81.30
2018-07-04T06:15:23.281Z,81.20
2018-07-04T06:18:02.528Z,80.80
2018-07-04T06:20:41.837Z,80.80
2018-07-04T06:25:54.641Z,80.50
2018-07-04T06:28:33.928Z,80.10
2018-07-04T06:31:13.053Z,80.90
2018-07-04T06:33:52.288Z,79.70
2018-07-04T06:36:31.634Z,79.70
2018-07-04T06:38:58.529Z,77.30
2018-07-04T06:41:25.340Z,76.70
2018-07-04T06:43:52.232Z,76.90
2018-07-04T06:46:19.043Z,75.10
2018-07-04T06:48:45.890Z,75.10
2018-07-04T06:51:12.704Z,75.70
2018-07-04T06:53:39.591Z,75.10
2018-07-04T06:56:06.442Z,74.60
2018-07-04T06:58:34.446Z,73.40
2018-07-04T07:01:01.311Z,73.40
2018-07-04T07:03:40.547Z,75.10
2018-07-04T07:06:19.909Z,75.20
2018-07-04T07:08:59.201Z,76.10
2018-07-04T07:11:38.469Z,75.50
2018-07-04T07:14:17.739Z,74.80
2018-07-04T07:16:57.129Z,74.00
2018-07-04T07:19:36.371Z,74.20
2018-07-04T07:22:15.653Z,73.60
2018-07-04T07:24:54.850Z,74.60
2018-07-04T07:27:34.214Z,73.60
2018-07-04T07:30:13.525Z,74.50
2018-07-04T07:32:52.953Z,74.40
2018-07-04T07:35:32.076Z,75.00
2018-07-04T07:38:11.352Z,74.50
2018-07-04T07:40:50.519Z,74.50
2018-07-04T07:43:29.890Z,74.00
2018-07-04T07:46:09.980Z,73.60
2018-07-04T07:48:49.411Z,72.70
2018-07-04T07:51:29.226Z,72.10
2018-07-04T07:54:08.508Z,71.60
2018-07-04T07:56:47.697Z,71.60
2018-07-04T07:59:26.893Z,72.00
2018-07-04T08:02:06.184Z,71.30
2018-07-04T08:04:45.500Z,71.40
2018-07-04T08:07:24.853Z,71.40
2018-07-04T08:10:03.972Z,71.60
2018-07-04T08:12:43.126Z,71.80
2018-07-04T08:15:22.561Z,70.90
2018-07-04T08:18:02.320Z,70.50
2018-07-04T08:20:41.541Z,69.90
2018-07-04T08:23:20.761Z,69.90
2018-07-04T08:25:59.949Z,68.60
2018-07-04T08:28:39.228Z,68.10
2018-07-04T08:31:18.439Z,67.90
2018-07-04T08:33:57.763Z,68.00
2018-07-04T08:36:37.160Z,67.80
2018-07-04T08:39:16.404Z,65.70
2018-07-04T08:41:55.574Z,65.20
2018-07-04T08:44:34.782Z,66.10
2018-07-04T08:47:14.050Z,67.00
2018-07-04T08:49:53.453Z,65.60
2018-07-04T08:52:32.838Z,65.80
2018-07-04T08:55:11.974Z,65.60
2018-07-04T08:57:51.178Z,64.50
2018-07-04T09:00:30.261Z,63.90
2018-07-04T09:03:09.468Z,64.20
2018-07-04T09:05:48.764Z,64.40
2018-07-04T09:08:28.216Z,63.20
2018-07-04T09:11:07.440Z,63.20
2018-07-04T09:13:46.857Z,62.60
2018-07-04T09:16:25.962Z,61.20
2018-07-04T09:19:05.221Z,61.70
2018-07-04T09:21:44.429Z,61.80
2018-07-04T09:24:23.717Z,61.40
2018-07-04T09:27:02.861Z,62.30
2018-07-04T09:29:42.187Z,62.10
2018-07-04T09:34:54.913Z,63.70
2018-07-04T09:37:34.009Z,63.90
2018-07-04T09:40:13.372Z,64.20
2018-07-04T09:42:52.610Z,64.10
2018-07-04T09:45:31.993Z,64.10
2018-07-04T09:48:11.081Z,64.50
2018-07-04T09:50:50.380Z,64.40
2018-07-04T09:53:29.569Z,64.50
2018-07-04T09:56:08.920Z,66.30
2018-07-04T09:58:48.212Z,64.00
2018-07-04T10:01:27.485Z,64.70
2018-07-04T10:04:06.785Z,64.70
2018-07-04T10:06:46.177Z,65.10
2018-07-04T10:09:25.517Z,62.80
2018-07-04T10:12:04.689Z,62.10
2018-07-04T10:14:43.896Z,60.80
2018-07-04T10:17:23.241Z,61.10
2018-07-04T10:20:02.352Z,60.40
2018-07-04T10:22:41.609Z,59.90
2018-07-04T10:25:20.953Z,58.20
2018-07-04T10:28:01.081Z,57.90
2018-07-04T10:30:41.041Z,58.20
2018-07-04T10:33:20.782Z,59.80
2018-07-04T10:36:00.117Z,61.40
2018-07-04T10:38:39.701Z,63.30
2018-07-04T10:41:19.246Z,63.20
2018-07-04T10:43:58.557Z,64.40
2018-07-04T10:46:38.067Z,64.90
2018-07-04T10:51:51.244Z,65.50
2018-07-04T10:54:30.813Z,65.50
2018-07-04T10:57:10.213Z,64.50
2018-07-04T10:59:49.441Z,65.00
2018-07-04T11:02:28.516Z,62.70
2018-07-04T11:05:07.940Z,62.40
2018-07-04T11:07:47.299Z,60.60
2018-07-04T11:10:26.549Z,59.60
2018-07-04T11:13:05.725Z,58.90
2018-07-04T11:15:44.953Z,58.20
2018-07-04T11:18:24.133Z,59.20
2018-07-04T11:21:03.485Z,58.20
2018-07-04T11:23:42.757Z,58.30
2018-07-04T11:26:22.049Z,57.40
2018-07-04T11:29:01.389Z,58.20
2018-07-04T11:31:41.204Z,56.90
2018-07-04T11:34:20.406Z,58.00
2018-07-04T11:36:59.583Z,56.20
2018-07-04T11:39:39.057Z,55.70
2018-07-04T11:42:18.493Z,55.90
2018-07-04T11:44:57.744Z,57.60
2018-07-04T11:47:24.585Z,57.00
2018-07-04T11:49:51.432Z,56.90
2018-07-04T11:52:18.253Z,58.30
2018-07-04T11:54:45.097Z,57.40
2018-07-04T11:57:11.949Z,56.70
2018-07-04T11:59:38.784Z,57.80
2018-07-04T12:02:05.629Z,57.00
2018-07-04T12:04:44.920Z,54.80
2018-07-04T12:07:11.769Z,56.40
2018-07-04T12:09:39.719Z,54.20
2018-07-04T12:12:06.705Z,53.60
2018-07-04T12:14:33.638Z,53.30
2018-07-04T12:17:00.609Z,52.50
2018-07-04T12:19:27.710Z,54.90
2018-07-04T12:21:54.517Z,53.70
2018-07-04T12:24:21.389Z,54.70
2018-07-04T12:26:48.276Z,56.30
2018-07-04T12:29:15.154Z,56.20
2018-07-04T12:31:42.090Z,57.10
2018-07-04T12:34:08.909Z,57.60
2018-07-04T12:36:35.762Z,59.20
2018-07-04T12:39:02.926Z,58.00
2018-07-04T12:41:29.855Z,59.60
2018-07-04T12:43:56.677Z,59.40
2018-07-04T12:46:23.497Z,59.70
2018-07-04T12:48:56.218Z,60.50
2018-07-04T12:51:23.059Z,62.40
2018-07-04T12:53:50.032Z,61.80
2018-07-04T12:56:29.337Z,61.70
2018-07-04T12:59:08.632Z,59.10
2018-07-04T13:01:47.824Z,59.60
2018-07-04T13:04:27.151Z,58.40
2018-07-04T13:07:06.456Z,59.00
2018-07-04T13:09:45.596Z,58.70
2018-07-04T13:12:24.724Z,57.50
2018-07-04T13:15:04.016Z,58.50
2018-07-04T13:17:43.214Z,57.90
2018-07-04T13:20:22.401Z,57.90
2018-07-04T13:23:01.593Z,58.90
2018-07-04T13:25:41.008Z,60.20
2018-07-04T13:28:20.156Z,61.50
2018-07-04T13:30:59.403Z,61.70
2018-07-04T13:33:38.812Z,61.60
2018-07-04T13:36:18.209Z,61.10
2018-07-04T13:38:57.568Z,60.80
2018-07-04T13:41:37.005Z,61.30
2018-07-04T13:44:16.481Z,61.70
2018-07-04T13:46:55.797Z,61.30
2018-07-04T13:49:34.989Z,61.80
2018-07-04T13:52:14.108Z,62.00
2018-07-04T13:54:53.269Z,63.20
2018-07-04T13:57:32.465Z,63.90
2018-07-04T14:00:12.125Z,63.60
2018-07-04T14:02:51.658Z,63.70
2018-07-04T14:05:30.761Z,63.80
2018-07-04T14:08:09.981Z,63.60
2018-07-04T14:10:49.316Z,64.20
2018-07-04T14:13:28.578Z,63.00
2018-07-04T14:16:07.816Z,62.80
2018-07-04T14:18:47.006Z,62.90
2018-07-04T14:21:28.038Z,63.90
2018-07-04T14:24:07.590Z,65.30
2018-07-04T14:26:46.747Z,65.90
2018-07-04T14:29:26.060Z,66.10
2018-07-04T14:32:05.619Z,65.90
2018-07-04T14:34:44.986Z,66.60
2018-07-04T14:39:57.504Z,65.70
2018-07-04T14:42:36.939Z,65.10
2018-07-04T14:45:16.356Z,65.20
2018-07-04T14:47:55.576Z,64.00
2018-07-04T14:50:34.854Z,63.50
2018-07-04T14:53:14.233Z,64.80
2018-07-04T14:55:53.578Z,63.00
2018-07-04T14:58:32.649Z,61.90
2018-07-04T15:01:11.976Z,62.00
2018-07-04T15:03:51.209Z,62.90
2018-07-04T15:06:30.388Z,62.60
2018-07-04T15:09:09.601Z,62.40
2018-07-04T15:11:48.973Z,63.10
2018-07-04T15:14:28.323Z,61.30
2018-07-04T15:17:07.408Z,63.00
2018-07-04T15:19:46.821Z,62.90
2018-07-04T15:22:25.968Z,63.00
2018-07-04T15:25:05.270Z,62.10
2018-07-04T15:27:44.527Z,63.20
2018-07-04T15:30:23.713Z,62.90
2018-07-04T15:33:02.953Z,63.00
2018-07-04T15:35:42.145Z,62.60
2018-07-04T15:38:21.642Z,62.70
2018-07-04T15:41:00.851Z,62.40
2018-07-04T15:43:40.172Z,61.30
2018-07-04T15:46:19.482Z,59.80
2018-07-04T15:48:58.899Z,60.10
2018-07-04T15:51:38.282Z,60.50
2018-07-04T15:54:17.616Z,60.60
2018-07-04T15:56:56.829Z,60.80
2018-07-04T15:59:36.104Z,60.70
2018-07-04T16:02:15.349Z,59.60
2018-07-04T16:04:54.532Z,59.00
2018-07-04T16:10:07.347Z,60.40
2018-07-04T16:12:46.593Z,59.10
2018-07-04T16:15:25.813Z,59.60
2018-07-04T16:18:05.057Z,59.30
2018-07-04T16:20:44.261Z,58.90
2018-07-04T16:23:23.407Z,59.20
2018-07-04T16:26:02.725Z,58.80
2018-07-04T16:28:42.017Z,59.90
2018-07-04T16:31:21.428Z,59.30
2018-07-04T16:34:00.562Z,59.70
2018-07-04T16:36:40.034Z,60.40
2018-07-04T16:39:19.236Z,60.90
2018-07-04T16:41:58.581Z,61.70
2018-07-04T16:44:37.875Z,61.70
2018-07-04T16:47:17.096Z,61.20
2018-07-04T16:49:56.185Z,61.00
2018-07-04T16:52:35.384Z,61.10
2018-07-04T16:55:14.760Z,61.10
2018-07-04T16:57:54.113Z,61.00
2018-07-04T17:00:33.805Z,61.40
2018-07-04T17:03:13.092Z,61.50
2018-07-04T17:05:52.327Z,62.20
2018-07-04T17:08:31.585Z,62.70
2018-07-04T17:11:10.699Z,62.40
2018-07-04T17:13:49.901Z,62.20
2018-07-04T17:16:29.244Z,61.70
2018-07-04T17:19:08.596Z,61.70
2018-07-04T17:21:47.787Z,61.70
2018-07-04T17:24:26.942Z,62.00
2018-07-04T17:27:06.068Z,62.70
2018-07-04T17:29:45.320Z,62.40
2018-07-04T17:32:24.526Z,62.70
2018-07-04T17:35:03.977Z,62.00
2018-07-04T17:37:43.410Z,61.50
2018-07-04T17:40:22.673Z,61.90
2018-07-04T17:43:01.941Z,62.10
2018-07-04T17:45:41.182Z,62.60
2018-07-04T17:48:20.402Z,63.10
2018-07-04T17:50:59.706Z,63.30
2018-07-04T17:53:39.112Z,63.20
2018-07-04T17:56:18.393Z,62.70
2018-07-04T17:58:57.797Z,62.70
2018-07-04T18:01:37.160Z,63.20
2018-07-04T18:04:16.765Z,63.40
2018-07-04T18:06:56.179Z,63.50
2018-07-04T18:09:35.613Z,63.80
2018-07-04T18:12:14.790Z,63.80
2018-07-04T18:14:54.015Z,64.10
2018-07-04T18:17:33.374Z,64.10
2018-07-04T18:20:12.619Z,65.10
2018-07-04T18:22:51.825Z,64.90
2018-07-04T18:25:31.056Z,65.10
2018-07-04T18:28:10.261Z,65.50
2018-07-04T18:30:49.638Z,65.70
2018-07-04T18:33:29.076Z,65.70
2018-07-04T18:36:08.390Z,65.70
2018-07-04T18:38:47.656Z,65.90
2018-07-04T18:41:27.066Z,66.00
2018-07-04T18:44:06.246Z,66.40
2018-07-04T18:46:45.588Z,66.40
2018-07-04T18:49:25.687Z,66.00
2018-07-04T18:52:05.248Z,67.60
2018-07-04T18:54:44.465Z,67.70
2018-07-04T18:57:24.537Z,67.90
2018-07-04T19:00:03.919Z,68.70
2018-07-04T19:02:43.356Z,69.30
2018-07-04T19:05:22.602Z,69.70
2018-07-04T19:08:01.909Z,69.90
2018-07-04T19:10:41.169Z,69.90
2018-07-04T19:13:20.606Z,69.50
2018-07-04T19:16:00.399Z,70.10
2018-07-04T19:18:42.690Z,68.90
2018-07-04T19:21:24.985Z,69.90
2018-07-04T19:24:13.485Z,69.00
2018-07-04T19:26:54.883Z,70.20
2018-07-04T19:29:34.168Z,70.50
2018-07-04T19:32:13.572Z,71.40
2018-07-04T19:34:52.876Z,71.60
2018-07-04T19:37:32.179Z,71.70
2018-07-04T19:40:11.360Z,72.50
2018-07-04T19:42:50.586Z,72.40
2018-07-04T19:45:29.897Z,73.30
2018-07-04T19:48:09.293Z,73.30
2018-07-04T19:50:48.535Z,73.80
2018-07-04T19:53:27.985Z,73.40
2018-07-04T19:56:07.357Z,73.80
2018-07-04T19:58:46.549Z,73.90
2018-07-04T20:01:25.850Z,74.10
2018-07-04T20:04:05.288Z,75.10
2018-07-04T20:06:45.513Z,75.30
2018-07-04T20:09:25.061Z,75.70
2018-07-04T20:12:04.537Z,75.70
2018-07-04T20:14:43.924Z,75.50
2018-07-04T20:17:23.215Z,75.40
2018-07-04T20:20:02.598Z,76.30
2018-07-04T20:22:41.753Z,76.90
2018-07-04T20:25:21.092Z,77.60
2018-07-04T20:28:00.418Z,77.90
2018-07-04T20:30:39.869Z,78.00
2018-07-04T20:33:19.460Z,77.90
2018-07-04T20:38:32.249Z,77.50
2018-07-04T20:41:11.473Z,77.40
2018-07-04T20:43:51.246Z,77.90
2018-07-04T20:46:30.461Z,77.90
2018-07-04T20:49:09.967Z,78.20
2018-07-04T20:51:49.334Z,78.30
2018-07-04T20:54:28.554Z,78.60
2018-07-04T20:57:07.886Z,79.00
2018-07-04T20:59:47.573Z,79.10
2018-07-04T21:02:27.015Z,78.80
2018-07-04T21:05:06.222Z,78.70
2018-07-04T21:07:45.460Z,79.00
2018-07-04T21:10:24.748Z,79.00
2018-07-04T21:13:04.009Z,79.80
2018-07-04T21:15:43.269Z,80.30
2018-07-04T21:18:22.601Z,81.40
2018-07-04T21:21:01.757Z,81.70
2018-07-04T21:23:41.226Z,82.10
2018-07-04T21:26:20.342Z,81.90
2018-07-04T21:28:59.756Z,81.90
2018-07-04T21:31:39.016Z,81.90
2018-07-04T21:34:18.292Z,82.30
2018-07-04T21:36:57.509Z,82.40
2018-07-04T21:39:36.929Z,82.20
2018-07-04T21:42:16.217Z,82.40
2018-07-04T21:44:55.505Z,82.30
2018-07-04T21:47:34.701Z,82.30
2018-07-04T21:50:14.161Z,82.60
2018-07-04T21:52:53.401Z,83.20
2018-07-04T21:55:32.541Z,83.60
2018-07-04T21:58:11.908Z,83.00
2018-07-04T22:00:51.181Z,83.10
2018-07-04T22:03:30.674Z,83.20
2018-07-04T22:06:09.800Z,82.80
2018-07-04T22:08:48.993Z,82.80
2018-07-04T22:11:28.167Z,82.20
2018-07-04T22:14:07.485Z,81.90
2018-07-04T22:16:46.728Z,82.30
2018-07-04T22:19:25.953Z,82.70
2018-07-04T22:22:05.024Z,83.20
2018-07-04T22:24:44.253Z,83.10
2018-07-04T22:27:23.403Z,82.80
2018-07-04T22:30:02.605Z,82.90
2018-07-04T22:32:41.879Z,83.90
2018-07-04T22:35:21.017Z,84.40
2018-07-04T22:38:00.313Z,84.70
2018-07-04T22:40:39.656Z,84.80
2018-07-04T22:43:19.004Z,84.90
2018-07-04T22:45:58.383Z,85.10
2018-07-04T22:48:37.645Z,85.30
2018-07-04T22:51:16.904Z,84.80
2018-07-04T22:53:56.329Z,84.50
2018-07-04T22:56:35.625Z,84.00
2018-07-04T22:59:14.840Z,84.00
2018-07-04T23:01:54.021Z,84.00
2018-07-04T23:04:33.288Z,84.30
2018-07-04T23:07:12.505Z,84.60
2018-07-04T23:09:51.705Z,85.00
2018-07-04T23:12:30.960Z,85.40
2018-07-04T23:15:10.288Z,85.80
2018-07-04T23:17:49.654Z,85.90
2018-07-04T23:20:28.914Z,85.70
2018-07-04T23:23:08.404Z,85.60
2018-07-04T23:25:47.700Z,85.30
2018-07-04T23:28:26.839Z,85.30
2018-07-04T23:31:06.204Z,85.70
2018-07-04T23:33:45.571Z,85.80
2018-07-04T23:36:24.797Z,86.20
2018-07-04T23:39:04.296Z,86.00
2018-07-04T23:41:43.573Z,85.80
2018-07-04T23:44:23.036Z,85.50
2018-07-04T23:47:02.377Z,85.00
2018-07-04T23:49:41.587Z,85.30
2018-07-04T23:52:20.924Z,84.90
2018-07-04T23:55:00.400Z,84.70
2018-07-04T23:57:39.836Z,85.40
